Terminal Aerodrome Forecast
Issued by NWS

Home | Current Version | Previous Version | Text Only | Print | Product List | Glossary On
Versions: 1 2 3 4 5 6 7 8 9 10 11 12 13 14 15 16 17 18 19
009
FTUS41 KCAR 251733
TAFBHB
TAF
KBHB 251733Z 2518/2618 22010KT P6SM SCT150
     FM260500 22006KT P6SM BKN100
     FM261500 27010KT P6SM SCT120=

USA.gov is the U.S. government's official web portal to all federal, state and local government web resources and services.